sensor_id;sensor_type;location;lat;lon;timestamp;P1;durP1;ratioP1;P2;durP2;ratioP2
76259;SDS011;65076;52.362;6.588;2023-03-13T00:01:22;15.07;;;3.92;;
76259;SDS011;65076;52.362;6.588;2023-03-13T00:03:53;13.18;;;2.65;;
76259;SDS011;65076;52.362;6.588;2023-03-13T00:06:23;12.40;;;2.65;;
76259;SDS011;65076;52.362;6.588;2023-03-13T00:08:53;14.70;;;3.47;;
76259;SDS011;65076;52.362;6.588;2023-03-13T00:11:23;15.05;;;4.40;;
76259;SDS011;65076;52.362;6.588;2023-03-13T00:13:52;18.23;;;3.90;;
76259;SDS011;65076;52.362;6.588;2023-03-13T00:16:22;17.67;;;3.88;;
76259;SDS011;65076;52.362;6.588;2023-03-13T00:18:51;14.38;;;2.65;;
76259;SDS011;65076;52.362;6.588;2023-03-13T00:21:21;13.50;;;3.40;;
76259;SDS011;65076;52.362;6.588;2023-03-13T00:23:53;13.98;;;3.00;;
76259;SDS011;65076;52.362;6.588;2023-03-13T00:26:22;15.70;;;3.28;;
76259;SDS011;65076;52.362;6.588;2023-03-13T00:28:52;15.48;;;2.97;;
76259;SDS011;65076;52.362;6.588;2023-03-13T00:31:21;17.48;;;3.55;;
76259;SDS011;65076;52.362;6.588;2023-03-13T00:33:52;20.95;;;3.83;;
76259;SDS011;65076;52.362;6.588;2023-03-13T00:36:25;16.17;;;3.10;;
76259;SDS011;65076;52.362;6.588;2023-03-13T00:38:56;17.98;;;3.25;;
76259;SDS011;65076;52.362;6.588;2023-03-13T00:41:27;9.80;;;1.95;;
76259;SDS011;65076;52.362;6.588;2023-03-13T00:43:57;16.17;;;3.20;;
76259;SDS011;65076;52.362;6.588;2023-03-13T00:46:26;20.77;;;4.07;;
76259;SDS011;65076;52.362;6.588;2023-03-13T00:51:26;16.33;;;4.47;;
76259;SDS011;65076;52.362;6.588;2023-03-13T00:53:55;16.48;;;3.47;;
76259;SDS011;65076;52.362;6.588;2023-03-13T00:56:26;13.73;;;2.92;;
76259;SDS011;65076;52.362;6.588;2023-03-13T00:58:55;11.85;;;3.00;;
76259;SDS011;65076;52.362;6.588;2023-03-13T01:01:23;18.60;;;4.18;;
76259;SDS011;65076;52.362;6.588;2023-03-13T01:03:54;15.23;;;3.13;;
76259;SDS011;65076;52.362;6.588;2023-03-13T01:06:27;23.38;;;4.65;;
76259;SDS011;65076;52.362;6.588;2023-03-13T01:08:57;16.45;;;4.55;;
76259;SDS011;65076;52.362;6.588;2023-03-13T01:11:26;15.02;;;3.40;;
76259;SDS011;65076;52.362;6.588;2023-03-13T01:13:59;18.75;;;3.78;;
76259;SDS011;65076;52.362;6.588;2023-03-13T01:16:30;19.83;;;3.65;;
76259;SDS011;65076;52.362;6.588;2023-03-13T01:19:01;14.68;;;3.15;;
76259;SDS011;65076;52.362;6.588;2023-03-13T01:21:37;14.55;;;3.08;;
76259;SDS011;65076;52.362;6.588;2023-03-13T01:24:06;14.70;;;3.03;;
76259;SDS011;65076;52.362;6.588;2023-03-13T01:26:34;19.33;;;4.15;;
76259;SDS011;65076;52.362;6.588;2023-03-13T01:29:02;13.95;;;2.35;;
76259;SDS011;65076;52.362;6.588;2023-03-13T01:31:31;16.75;;;4.03;;
76259;SDS011;65076;52.362;6.588;2023-03-13T01:34:02;19.17;;;3.15;;
76259;SDS011;65076;52.362;6.588;2023-03-13T01:36:34;12.50;;;2.95;;
76259;SDS011;65076;52.362;6.588;2023-03-13T01:39:05;10.40;;;2.83;;
76259;SDS011;65076;52.362;6.588;2023-03-13T01:41:33;16.08;;;2.90;;
76259;SDS011;65076;52.362;6.588;2023-03-13T01:44:01;11.90;;;2.97;;
76259;SDS011;65076;52.362;6.588;2023-03-13T01:46:30;20.65;;;3.30;;
76259;SDS011;65076;52.362;6.588;2023-03-13T01:48:59;11.13;;;2.90;;
76259;SDS011;65076;52.362;6.588;2023-03-13T01:51:34;12.45;;;2.97;;
76259;SDS011;65076;52.362;6.588;2023-03-13T01:54:08;13.05;;;2.67;;
76259;SDS011;65076;52.362;6.588;2023-03-13T01:56:42;15.05;;;3.33;;
76259;SDS011;65076;52.362;6.588;2023-03-13T01:59:17;23.08;;;3.72;;
76259;SDS011;65076;52.362;6.588;2023-03-13T02:01:50;9.82;;;2.10;;
76259;SDS011;65076;52.362;6.588;2023-03-13T02:04:23;19.63;;;3.63;;
76259;SDS011;65076;52.362;6.588;2023-03-13T02:06:59;8.43;;;2.38;;
76259;SDS011;65076;52.362;6.588;2023-03-13T02:12:04;13.30;;;3.28;;
76259;SDS011;65076;52.362;6.588;2023-03-13T02:14:37;8.23;;;2.63;;
76259;SDS011;65076;52.362;6.588;2023-03-13T02:17:10;11.60;;;2.85;;
76259;SDS011;65076;52.362;6.588;2023-03-13T02:19:41;14.15;;;3.08;;
76259;SDS011;65076;52.362;6.588;2023-03-13T02:22:15;7.43;;;2.10;;
76259;SDS011;65076;52.362;6.588;2023-03-13T02:24:53;8.00;;;2.40;;
76259;SDS011;65076;52.362;6.588;2023-03-13T02:27:35;10.20;;;2.08;;
76259;SDS011;65076;52.362;6.588;2023-03-13T02:30:04;4.70;;;1.20;;
76259;SDS011;65076;52.362;6.588;2023-03-13T02:32:36;7.53;;;1.90;;
76259;SDS011;65076;52.362;6.588;2023-03-13T02:35:06;8.27;;;2.53;;
76259;SDS011;65076;52.362;6.588;2023-03-13T02:37:38;14.52;;;3.47;;
76259;SDS011;65076;52.362;6.588;2023-03-13T02:40:12;4.97;;;1.70;;
76259;SDS011;65076;52.362;6.588;2023-03-13T02:42:49;8.80;;;2.22;;
76259;SDS011;65076;52.362;6.588;2023-03-13T02:45:20;7.85;;;1.52;;
76259;SDS011;65076;52.362;6.588;2023-03-13T02:47:49;6.95;;;1.48;;
76259;SDS011;65076;52.362;6.588;2023-03-13T02:50:17;7.28;;;2.00;;
76259;SDS011;65076;52.362;6.588;2023-03-13T02:52:47;6.80;;;2.05;;
76259;SDS011;65076;52.362;6.588;2023-03-13T02:55:24;4.93;;;1.92;;
76259;SDS011;65076;52.362;6.588;2023-03-13T02:57:58;5.88;;;2.30;;
76259;SDS011;65076;52.362;6.588;2023-03-13T03:00:26;9.60;;;2.90;;
76259;SDS011;65076;52.362;6.588;2023-03-13T03:02:54;7.70;;;2.03;;
76259;SDS011;65076;52.362;6.588;2023-03-13T03:05:22;4.45;;;1.90;;
76259;SDS011;65076;52.362;6.588;2023-03-13T03:07:51;1.83;;;0.95;;
76259;SDS011;65076;52.362;6.588;2023-03-13T03:10:19;5.63;;;1.60;;
76259;SDS011;65076;52.362;6.588;2023-03-13T03:12:47;6.07;;;1.75;;
76259;SDS011;65076;52.362;6.588;2023-03-13T03:15:16;8.95;;;2.17;;
76259;SDS011;65076;52.362;6.588;2023-03-13T03:17:44;5.25;;;1.23;;
76259;SDS011;65076;52.362;6.588;2023-03-13T03:20:15;4.57;;;1.63;;
76259;SDS011;65076;52.362;6.588;2023-03-13T03:22:43;4.75;;;1.52;;
76259;SDS011;65076;52.362;6.588;2023-03-13T03:25:11;4.93;;;1.60;;
76259;SDS011;65076;52.362;6.588;2023-03-13T03:27:39;4.57;;;1.30;;
76259;SDS011;65076;52.362;6.588;2023-03-13T03:30:08;3.40;;;1.52;;
76259;SDS011;65076;52.362;6.588;2023-03-13T03:32:39;3.03;;;1.52;;
76259;SDS011;65076;52.362;6.588;2023-03-13T03:35:07;4.22;;;1.35;;
76259;SDS011;65076;52.362;6.588;2023-03-13T03:37:35;6.93;;;2.45;;
76259;SDS011;65076;52.362;6.588;2023-03-13T03:40:04;7.43;;;1.90;;
76259;SDS011;65076;52.362;6.588;2023-03-13T03:42:33;5.22;;;1.90;;
76259;SDS011;65076;52.362;6.588;2023-03-13T03:45:02;2.78;;;1.35;;
76259;SDS011;65076;52.362;6.588;2023-03-13T03:47:30;5.68;;;1.63;;
76259;SDS011;65076;52.362;6.588;2023-03-13T03:50:00;3.08;;;1.75;;
76259;SDS011;65076;52.362;6.588;2023-03-13T03:52:29;6.97;;;1.83;;
76259;SDS011;65076;52.362;6.588;2023-03-13T03:54:57;3.25;;;1.80;;
76259;SDS011;65076;52.362;6.588;2023-03-13T03:57:24;2.85;;;2.00;;
76259;SDS011;65076;52.362;6.588;2023-03-13T03:59:52;3.97;;;1.30;;
76259;SDS011;65076;52.362;6.588;2023-03-13T04:02:20;4.30;;;1.58;;
76259;SDS011;65076;52.362;6.588;2023-03-13T04:04:51;3.42;;;1.92;;
76259;SDS011;65076;52.362;6.588;2023-03-13T04:07:23;2.97;;;1.30;;
76259;SDS011;65076;52.362;6.588;2023-03-13T04:09:51;3.80;;;1.85;;
76259;SDS011;65076;52.362;6.588;2023-03-13T04:12:21;3.92;;;1.77;;
76259;SDS011;65076;52.362;6.588;2023-03-13T04:14:49;4.78;;;2.15;;
76259;SDS011;65076;52.362;6.588;2023-03-13T04:17:17;2.25;;;1.83;;
76259;SDS011;65076;52.362;6.588;2023-03-13T04:19:45;3.55;;;1.80;;
76259;SDS011;65076;52.362;6.588;2023-03-13T04:22:13;5.88;;;1.80;;
76259;SDS011;65076;52.362;6.588;2023-03-13T04:24:42;1.45;;;1.23;;
76259;SDS011;65076;52.362;6.588;2023-03-13T04:27:10;5.03;;;1.95;;
76259;SDS011;65076;52.362;6.588;2023-03-13T04:29:38;2.55;;;1.88;;
76259;SDS011;65076;52.362;6.588;2023-03-13T04:32:06;2.60;;;1.50;;
76259;SDS011;65076;52.362;6.588;2023-03-13T04:34:34;2.65;;;1.70;;
76259;SDS011;65076;52.362;6.588;2023-03-13T04:37:03;4.03;;;1.83;;
76259;SDS011;65076;52.362;6.588;2023-03-13T04:39:31;5.03;;;2.03;;
76259;SDS011;65076;52.362;6.588;2023-03-13T04:42:00;2.97;;;2.13;;
76259;SDS011;65076;52.362;6.588;2023-03-13T04:44:28;2.03;;;1.38;;
76259;SDS011;65076;52.362;6.588;2023-03-13T04:46:58;2.90;;;1.92;;
76259;SDS011;65076;52.362;6.588;2023-03-13T04:49:26;5.55;;;2.30;;
76259;SDS011;65076;52.362;6.588;2023-03-13T04:51:54;3.30;;;1.63;;
76259;SDS011;65076;52.362;6.588;2023-03-13T04:54:22;3.10;;;1.60;;
76259;SDS011;65076;52.362;6.588;2023-03-13T04:56:50;1.90;;;1.15;;
76259;SDS011;65076;52.362;6.588;2023-03-13T04:59:19;2.17;;;1.48;;
76259;SDS011;65076;52.362;6.588;2023-03-13T05:01:47;2.78;;;1.52;;
76259;SDS011;65076;52.362;6.588;2023-03-13T05:04:15;3.28;;;1.75;;
76259;SDS011;65076;52.362;6.588;2023-03-13T05:06:43;2.72;;;2.25;;
76259;SDS011;65076;52.362;6.588;2023-03-13T05:09:12;3.42;;;2.25;;
76259;SDS011;65076;52.362;6.588;2023-03-13T05:11:40;4.65;;;2.92;;
76259;SDS011;65076;52.362;6.588;2023-03-13T05:14:08;2.80;;;1.98;;
76259;SDS011;65076;52.362;6.588;2023-03-13T05:16:38;2.60;;;1.48;;
76259;SDS011;65076;52.362;6.588;2023-03-13T05:19:06;4.57;;;2.63;;
76259;SDS011;65076;52.362;6.588;2023-03-13T05:21:34;3.28;;;1.67;;
76259;SDS011;65076;52.362;6.588;2023-03-13T05:24:02;3.03;;;2.10;;
76259;SDS011;65076;52.362;6.588;2023-03-13T05:26:31;3.70;;;1.77;;
76259;SDS011;65076;52.362;6.588;2023-03-13T05:28:59;3.67;;;2.13;;
76259;SDS011;65076;52.362;6.588;2023-03-13T05:31:27;4.50;;;2.47;;
76259;SDS011;65076;52.362;6.588;2023-03-13T05:33:56;3.17;;;2.53;;
76259;SDS011;65076;52.362;6.588;2023-03-13T05:36:24;5.97;;;2.97;;
76259;SDS011;65076;52.362;6.588;2023-03-13T05:38:52;5.60;;;2.35;;
76259;SDS011;65076;52.362;6.588;2023-03-13T05:41:20;4.68;;;3.47;;
76259;SDS011;65076;52.362;6.588;2023-03-13T05:43:48;3.03;;;2.72;;
76259;SDS011;65076;52.362;6.588;2023-03-13T05:46:16;3.50;;;2.33;;
76259;SDS011;65076;52.362;6.588;2023-03-13T05:48:45;3.90;;;2.38;;
76259;SDS011;65076;52.362;6.588;2023-03-13T05:51:14;4.25;;;2.25;;
76259;SDS011;65076;52.362;6.588;2023-03-13T05:53:42;6.22;;;3.25;;
76259;SDS011;65076;52.362;6.588;2023-03-13T05:56:11;5.40;;;2.85;;
76259;SDS011;65076;52.362;6.588;2023-03-13T05:58:38;4.18;;;2.78;;
76259;SDS011;65076;52.362;6.588;2023-03-13T06:01:07;4.55;;;3.10;;
76259;SDS011;65076;52.362;6.588;2023-03-13T06:03:36;9.27;;;3.35;;
76259;SDS011;65076;52.362;6.588;2023-03-13T06:06:05;5.35;;;2.90;;
76259;SDS011;65076;52.362;6.588;2023-03-13T06:08:34;4.45;;;3.03;;
76259;SDS011;65076;52.362;6.588;2023-03-13T06:11:02;2.97;;;2.28;;
76259;SDS011;65076;52.362;6.588;2023-03-13T06:13:30;6.00;;;2.75;;
76259;SDS011;65076;52.362;6.588;2023-03-13T06:15:58;5.13;;;2.95;;
76259;SDS011;65076;52.362;6.588;2023-03-13T06:18:26;5.75;;;3.10;;
76259;SDS011;65076;52.362;6.588;2023-03-13T06:20:55;8.02;;;3.90;;
76259;SDS011;65076;52.362;6.588;2023-03-13T06:23:25;3.97;;;3.25;;
76259;SDS011;65076;52.362;6.588;2023-03-13T06:25:59;4.22;;;3.28;;
76259;SDS011;65076;52.362;6.588;2023-03-13T06:28:27;4.85;;;3.22;;
76259;SDS011;65076;52.362;6.588;2023-03-13T06:30:59;5.55;;;3.15;;
76259;SDS011;65076;52.362;6.588;2023-03-13T06:33:28;3.65;;;3.00;;
76259;SDS011;65076;52.362;6.588;2023-03-13T06:35:58;5.18;;;2.85;;
76259;SDS011;65076;52.362;6.588;2023-03-13T06:38:28;8.15;;;3.65;;
76259;SDS011;65076;52.362;6.588;2023-03-13T06:40:59;2.80;;;2.30;;
76259;SDS011;65076;52.362;6.588;2023-03-13T06:43:27;4.85;;;3.13;;
76259;SDS011;65076;52.362;6.588;2023-03-13T06:45:55;5.63;;;3.15;;
76259;SDS011;65076;52.362;6.588;2023-03-13T06:48:23;7.10;;;3.13;;
76259;SDS011;65076;52.362;6.588;2023-03-13T06:50:57;3.00;;;2.00;;
76259;SDS011;65076;52.362;6.588;2023-03-13T06:53:24;2.80;;;2.13;;
76259;SDS011;65076;52.362;6.588;2023-03-13T06:55:52;5.25;;;3.17;;
76259;SDS011;65076;52.362;6.588;2023-03-13T06:58:22;4.03;;;2.50;;
76259;SDS011;65076;52.362;6.588;2023-03-13T07:00:58;5.70;;;3.00;;
76259;SDS011;65076;52.362;6.588;2023-03-13T07:03:28;5.18;;;3.08;;
76259;SDS011;65076;52.362;6.588;2023-03-13T07:05:56;3.53;;;2.58;;
76259;SDS011;65076;52.362;6.588;2023-03-13T07:08:25;5.82;;;2.85;;
76259;SDS011;65076;52.362;6.588;2023-03-13T07:10:57;8.45;;;2.85;;
76259;SDS011;65076;52.362;6.588;2023-03-13T07:13:28;2.92;;;2.22;;
76259;SDS011;65076;52.362;6.588;2023-03-13T07:15:58;3.90;;;2.85;;
76259;SDS011;65076;52.362;6.588;2023-03-13T07:18:29;5.55;;;2.42;;
76259;SDS011;65076;52.362;6.588;2023-03-13T07:21:00;7.50;;;2.47;;
76259;SDS011;65076;52.362;6.588;2023-03-13T07:23:32;4.93;;;2.45;;
76259;SDS011;65076;52.362;6.588;2023-03-13T07:26:02;4.70;;;2.53;;
76259;SDS011;65076;52.362;6.588;2023-03-13T07:28:34;6.85;;;2.95;;
76259;SDS011;65076;52.362;6.588;2023-03-13T07:36:01;5.65;;;2.58;;
76259;SDS011;65076;52.362;6.588;2023-03-13T07:38:29;3.85;;;1.70;;
76259;SDS011;65076;52.362;6.588;2023-03-13T07:40:57;3.63;;;2.30;;
76259;SDS011;65076;52.362;6.588;2023-03-13T07:43:26;5.75;;;2.20;;
76259;SDS011;65076;52.362;6.588;2023-03-13T07:45:57;5.65;;;2.42;;
76259;SDS011;65076;52.362;6.588;2023-03-13T07:48:27;6.95;;;3.50;;
76259;SDS011;65076;52.362;6.588;2023-03-13T07:50:58;9.82;;;3.63;;
76259;SDS011;65076;52.362;6.588;2023-03-13T07:53:26;4.93;;;2.47;;
76259;SDS011;65076;52.362;6.588;2023-03-13T07:55:56;3.88;;;2.20;;
76259;SDS011;65076;52.362;6.588;2023-03-13T07:58:26;5.70;;;2.25;;
76259;SDS011;65076;52.362;6.588;2023-03-13T08:00:58;7.13;;;2.78;;
76259;SDS011;65076;52.362;6.588;2023-03-13T08:03:26;5.65;;;2.67;;
76259;SDS011;65076;52.362;6.588;2023-03-13T08:05:58;5.07;;;2.05;;
76259;SDS011;65076;52.362;6.588;2023-03-13T08:08:28;7.60;;;2.20;;
76259;SDS011;65076;52.362;6.588;2023-03-13T08:11:00;4.55;;;1.80;;
76259;SDS011;65076;52.362;6.588;2023-03-13T08:13:28;3.00;;;1.85;;
76259;SDS011;65076;52.362;6.588;2023-03-13T08:16:02;3.55;;;1.75;;
76259;SDS011;65076;52.362;6.588;2023-03-13T08:18:34;4.47;;;1.60;;
76259;SDS011;65076;52.362;6.588;2023-03-13T08:21:04;5.85;;;1.92;;
76259;SDS011;65076;52.362;6.588;2023-03-13T08:23:34;3.45;;;2.05;;
76259;SDS011;65076;52.362;6.588;2023-03-13T08:26:04;4.70;;;2.00;;
76259;SDS011;65076;52.362;6.588;2023-03-13T08:28:34;2.13;;;1.52;;
76259;SDS011;65076;52.362;6.588;2023-03-13T08:31:09;5.20;;;2.53;;
76259;SDS011;65076;52.362;6.588;2023-03-13T08:33:40;4.45;;;1.70;;
76259;SDS011;65076;52.362;6.588;2023-03-13T08:36:10;5.57;;;1.80;;
76259;SDS011;65076;52.362;6.588;2023-03-13T08:38:42;4.22;;;1.42;;
76259;SDS011;65076;52.362;6.588;2023-03-13T08:41:11;3.47;;;2.55;;
76259;SDS011;65076;52.362;6.588;2023-03-13T08:43:41;5.07;;;1.30;;
76259;SDS011;65076;52.362;6.588;2023-03-13T08:46:11;5.35;;;2.15;;
76259;SDS011;65076;52.362;6.588;2023-03-13T08:48:39;5.22;;;1.92;;
76259;SDS011;65076;52.362;6.588;2023-03-13T08:51:08;2.47;;;1.55;;
76259;SDS011;65076;52.362;6.588;2023-03-13T08:53:39;2.10;;;1.30;;
76259;SDS011;65076;52.362;6.588;2023-03-13T08:56:09;4.53;;;1.80;;
76259;SDS011;65076;52.362;6.588;2023-03-13T09:01:08;4.53;;;2.95;;
76259;SDS011;65076;52.362;6.588;2023-03-13T09:03:39;5.70;;;1.60;;
76259;SDS011;65076;52.362;6.588;2023-03-13T09:06:09;5.88;;;1.92;;
76259;SDS011;65076;52.362;6.588;2023-03-13T09:08:38;6.88;;;2.70;;
76259;SDS011;65076;52.362;6.588;2023-03-13T09:11:08;3.25;;;1.90;;
76259;SDS011;65076;52.362;6.588;2023-03-13T09:13:39;5.43;;;2.03;;
76259;SDS011;65076;52.362;6.588;2023-03-13T09:16:12;6.05;;;2.22;;
76259;SDS011;65076;52.362;6.588;2023-03-13T09:18:42;6.55;;;3.22;;
76259;SDS011;65076;52.362;6.588;2023-03-13T09:21:12;4.50;;;2.00;;
76259;SDS011;65076;52.362;6.588;2023-03-13T09:23:42;3.88;;;1.83;;
76259;SDS011;65076;52.362;6.588;2023-03-13T09:26:10;4.07;;;2.00;;
76259;SDS011;65076;52.362;6.588;2023-03-13T09:28:39;3.25;;;1.70;;
76259;SDS011;65076;52.362;6.588;2023-03-13T09:31:08;4.60;;;1.50;;
76259;SDS011;65076;52.362;6.588;2023-03-13T09:33:39;2.92;;;1.23;;
76259;SDS011;65076;52.362;6.588;2023-03-13T09:36:08;3.08;;;1.90;;
76259;SDS011;65076;52.362;6.588;2023-03-13T09:38:38;2.58;;;1.27;;
76259;SDS011;65076;52.362;6.588;2023-03-13T09:41:11;2.95;;;1.20;;
76259;SDS011;65076;52.362;6.588;2023-03-13T09:43:50;2.38;;;1.25;;
76259;SDS011;65076;52.362;6.588;2023-03-13T09:46:29;2.65;;;1.13;;
76259;SDS011;65076;52.362;6.588;2023-03-13T09:49:11;3.75;;;1.13;;
76259;SDS011;65076;52.362;6.588;2023-03-13T09:51:49;3.50;;;1.17;;
76259;SDS011;65076;52.362;6.588;2023-03-13T09:54:30;2.90;;;1.10;;
76259;SDS011;65076;52.362;6.588;2023-03-13T09:57:05;2.83;;;1.08;;
76259;SDS011;65076;52.362;6.588;2023-03-13T09:59:43;2.10;;;0.90;;
76259;SDS011;65076;52.362;6.588;2023-03-13T10:02:24;3.38;;;0.85;;
76259;SDS011;65076;52.362;6.588;2023-03-13T10:05:01;3.13;;;1.25;;
76259;SDS011;65076;52.362;6.588;2023-03-13T10:07:38;3.28;;;1.15;;
76259;SDS011;65076;52.362;6.588;2023-03-13T10:10:09;2.33;;;1.13;;
76259;SDS011;65076;52.362;6.588;2023-03-13T10:12:44;3.90;;;0.88;;
76259;SDS011;65076;52.362;6.588;2023-03-13T10:15:16;4.97;;;1.60;;
76259;SDS011;65076;52.362;6.588;2023-03-13T10:18:13;1.02;;;0.80;;
76259;SDS011;65076;52.362;6.588;2023-03-13T10:20:47;3.28;;;1.23;;
76259;SDS011;65076;52.362;6.588;2023-03-13T10:23:19;4.05;;;0.98;;
76259;SDS011;65076;52.362;6.588;2023-03-13T10:25:53;3.13;;;1.05;;
76259;SDS011;65076;52.362;6.588;2023-03-13T10:28:21;3.67;;;1.08;;
76259;SDS011;65076;52.362;6.588;2023-03-13T10:30:50;2.50;;;1.00;;
76259;SDS011;65076;52.362;6.588;2023-03-13T10:33:28;2.95;;;0.80;;
76259;SDS011;65076;52.362;6.588;2023-03-13T10:36:07;2.97;;;0.80;;
76259;SDS011;65076;52.362;6.588;2023-03-13T10:38:48;2.80;;;0.95;;
76259;SDS011;65076;52.362;6.588;2023-03-13T10:41:25;3.88;;;1.48;;
76259;SDS011;65076;52.362;6.588;2023-03-13T10:43:58;2.03;;;1.02;;
76259;SDS011;65076;52.362;6.588;2023-03-13T10:46:31;2.83;;;1.05;;
76259;SDS011;65076;52.362;6.588;2023-03-13T10:49:02;3.40;;;0.95;;
76259;SDS011;65076;52.362;6.588;2023-03-13T10:51:44;2.00;;;0.95;;
76259;SDS011;65076;52.362;6.588;2023-03-13T10:54:18;3.63;;;1.48;;
76259;SDS011;65076;52.362;6.588;2023-03-13T10:56:51;3.78;;;1.17;;
76259;SDS011;65076;52.362;6.588;2023-03-13T10:59:38;2.45;;;1.10;;
76259;SDS011;65076;52.362;6.588;2023-03-13T11:02:19;2.95;;;0.80;;
76259;SDS011;65076;52.362;6.588;2023-03-13T11:04:52;2.13;;;1.38;;
76259;SDS011;65076;52.362;6.588;2023-03-13T11:07:24;2.45;;;1.30;;
76259;SDS011;65076;52.362;6.588;2023-03-13T11:09:56;5.20;;;2.85;;
76259;SDS011;65076;52.362;6.588;2023-03-13T11:12:26;2.55;;;1.50;;
76259;SDS011;65076;52.362;6.588;2023-03-13T11:14:56;2.75;;;1.80;;
76259;SDS011;65076;52.362;6.588;2023-03-13T11:17:28;2.90;;;1.23;;
76259;SDS011;65076;52.362;6.588;2023-03-13T11:20:07;3.08;;;1.70;;
76259;SDS011;65076;52.362;6.588;2023-03-13T11:22:52;1.05;;;0.80;;
76259;SDS011;65076;52.362;6.588;2023-03-13T11:25:37;2.83;;;1.20;;
76259;SDS011;65076;52.362;6.588;2023-03-13T11:28:13;2.65;;;1.40;;
76259;SDS011;65076;52.362;6.588;2023-03-13T11:31:08;1.50;;;0.95;;
76259;SDS011;65076;52.362;6.588;2023-03-13T11:33:46;3.40;;;1.40;;
76259;SDS011;65076;52.362;6.588;2023-03-13T11:39:05;1.70;;;1.40;;
76259;SDS011;65076;52.362;6.588;2023-03-13T11:42:03;2.00;;;1.10;;
76259;SDS011;65076;52.362;6.588;2023-03-13T11:44:54;2.50;;;1.48;;
76259;SDS011;65076;52.362;6.588;2023-03-13T11:47:39;2.72;;;0.90;;
76259;SDS011;65076;52.362;6.588;2023-03-13T11:50:30;2.38;;;1.42;;
76259;SDS011;65076;52.362;6.588;2023-03-13T11:53:18;1.70;;;1.42;;
76259;SDS011;65076;52.362;6.588;2023-03-13T11:56:04;3.67;;;0.80;;
76259;SDS011;65076;52.362;6.588;2023-03-13T11:58:48;2.80;;;1.02;;
76259;SDS011;65076;52.362;6.588;2023-03-13T12:01:33;2.22;;;1.20;;
76259;SDS011;65076;52.362;6.588;2023-03-13T12:04:12;2.10;;;1.30;;
76259;SDS011;65076;52.362;6.588;2023-03-13T12:06:49;2.05;;;0.90;;
76259;SDS011;65076;52.362;6.588;2023-03-13T12:09:30;2.30;;;1.00;;
76259;SDS011;65076;52.362;6.588;2023-03-13T12:12:10;1.55;;;1.05;;
76259;SDS011;65076;52.362;6.588;2023-03-13T12:15:01;2.80;;;0.95;;
76259;SDS011;65076;52.362;6.588;2023-03-13T12:17:45;1.40;;;0.90;;
76259;SDS011;65076;52.362;6.588;2023-03-13T12:20:22;2.10;;;1.10;;
76259;SDS011;65076;52.362;6.588;2023-03-13T12:22:56;2.15;;;0.80;;
76259;SDS011;65076;52.362;6.588;2023-03-13T12:25:43;3.45;;;1.10;;
76259;SDS011;65076;52.362;6.588;2023-03-13T12:28:22;3.45;;;1.10;;
76259;SDS011;65076;52.362;6.588;2023-03-13T12:31:01;2.15;;;0.80;;
76259;SDS011;65076;52.362;6.588;2023-03-13T12:33:44;2.95;;;1.25;;
76259;SDS011;65076;52.362;6.588;2023-03-13T12:36:22;3.13;;;0.88;;
76259;SDS011;65076;52.362;6.588;2023-03-13T12:39:00;1.30;;;0.90;;
76259;SDS011;65076;52.362;6.588;2023-03-13T12:41:45;1.77;;;0.65;;
76259;SDS011;65076;52.362;6.588;2023-03-13T12:44:28;2.35;;;1.02;;
76259;SDS011;65076;52.362;6.588;2023-03-13T12:46:57;6.53;;;1.25;;
76259;SDS011;65076;52.362;6.588;2023-03-13T12:49:45;2.75;;;0.90;;
76259;SDS011;65076;52.362;6.588;2023-03-13T12:52:48;1.63;;;0.65;;
76259;SDS011;65076;52.362;6.588;2023-03-13T12:55:47;2.05;;;0.80;;
76259;SDS011;65076;52.362;6.588;2023-03-13T12:58:45;2.35;;;0.77;;
76259;SDS011;65076;52.362;6.588;2023-03-13T13:01:24;2.03;;;0.90;;
76259;SDS011;65076;52.362;6.588;2023-03-13T13:04:00;1.42;;;0.80;;
76259;SDS011;65076;52.362;6.588;2023-03-13T13:09:32;3.67;;;0.85;;
76259;SDS011;65076;52.362;6.588;2023-03-13T13:12:09;1.63;;;0.90;;
76259;SDS011;65076;52.362;6.588;2023-03-13T13:17:55;2.28;;;0.82;;
76259;SDS011;65076;52.362;6.588;2023-03-13T13:20:37;2.03;;;0.70;;
76259;SDS011;65076;52.362;6.588;2023-03-13T13:32:36;3.25;;;0.85;;
76259;SDS011;65076;52.362;6.588;2023-03-13T13:35:22;2.03;;;0.60;;
76259;SDS011;65076;52.362;6.588;2023-03-13T13:41:04;3.70;;;0.93;;
76259;SDS011;65076;52.362;6.588;2023-03-13T13:46:52;3.33;;;0.82;;
76259;SDS011;65076;52.362;6.588;2023-03-13T13:49:26;2.85;;;0.73;;
76259;SDS011;65076;52.362;6.588;2023-03-13T13:55:28;2.30;;;0.80;;
76259;SDS011;65076;52.362;6.588;2023-03-13T13:58:11;2.97;;;0.70;;
76259;SDS011;65076;52.362;6.588;2023-03-13T14:00:47;2.63;;;1.00;;
76259;SDS011;65076;52.362;6.588;2023-03-13T14:03:22;1.90;;;1.08;;
76259;SDS011;65076;52.362;6.588;2023-03-13T14:05:54;3.17;;;1.05;;
76259;SDS011;65076;52.362;6.588;2023-03-13T14:08:29;2.53;;;0.93;;
76259;SDS011;65076;52.362;6.588;2023-03-13T14:11:06;2.03;;;0.90;;
76259;SDS011;65076;52.362;6.588;2023-03-13T14:14:10;4.28;;;0.75;;
76259;SDS011;65076;52.362;6.588;2023-03-13T14:16:43;4.88;;;0.70;;
76259;SDS011;65076;52.362;6.588;2023-03-13T14:19:20;1.90;;;0.90;;
76259;SDS011;65076;52.362;6.588;2023-03-13T14:21:56;3.05;;;0.70;;
76259;SDS011;65076;52.362;6.588;2023-03-13T14:24:27;2.47;;;0.90;;
76259;SDS011;65076;52.362;6.588;2023-03-13T14:26:55;2.90;;;1.25;;
76259;SDS011;65076;52.362;6.588;2023-03-13T14:29:24;3.13;;;0.98;;
76259;SDS011;65076;52.362;6.588;2023-03-13T14:31:52;2.95;;;0.63;;
76259;SDS011;65076;52.362;6.588;2023-03-13T14:34:23;1.75;;;0.68;;
76259;SDS011;65076;52.362;6.588;2023-03-13T14:36:58;2.33;;;0.70;;
76259;SDS011;65076;52.362;6.588;2023-03-13T14:39:45;3.45;;;0.90;;
76259;SDS011;65076;52.362;6.588;2023-03-13T14:42:14;4.55;;;0.80;;
76259;SDS011;65076;52.362;6.588;2023-03-13T14:44:45;4.00;;;0.90;;
76259;SDS011;65076;52.362;6.588;2023-03-13T14:47:18;4.57;;;1.13;;
76259;SDS011;65076;52.362;6.588;2023-03-13T14:49:54;1.63;;;0.50;;
76259;SDS011;65076;52.362;6.588;2023-03-13T14:52:25;2.70;;;0.85;;
76259;SDS011;65076;52.362;6.588;2023-03-13T14:54:58;2.60;;;1.15;;
76259;SDS011;65076;52.362;6.588;2023-03-13T14:57:30;2.17;;;0.82;;
76259;SDS011;65076;52.362;6.588;2023-03-13T15:06:12;5.28;;;1.02;;
76259;SDS011;65076;52.362;6.588;2023-03-13T15:08:44;4.28;;;1.08;;
76259;SDS011;65076;52.362;6.588;2023-03-13T15:11:18;4.47;;;1.30;;
76259;SDS011;65076;52.362;6.588;2023-03-13T15:13:55;3.97;;;1.40;;
76259;SDS011;65076;52.362;6.588;2023-03-13T15:16:24;2.67;;;1.10;;
76259;SDS011;65076;52.362;6.588;2023-03-13T15:18:55;4.78;;;1.42;;
76259;SDS011;65076;52.362;6.588;2023-03-13T15:21:27;5.00;;;1.20;;
76259;SDS011;65076;52.362;6.588;2023-03-13T15:23:58;5.95;;;1.42;;
76259;SDS011;65076;52.362;6.588;2023-03-13T15:26:29;2.55;;;0.68;;
76259;SDS011;65076;52.362;6.588;2023-03-13T15:28:57;5.15;;;1.00;;
76259;SDS011;65076;52.362;6.588;2023-03-13T15:31:26;6.43;;;0.98;;
76259;SDS011;65076;52.362;6.588;2023-03-13T15:33:56;1.83;;;0.85;;
76259;SDS011;65076;52.362;6.588;2023-03-13T15:36:27;4.95;;;1.45;;
76259;SDS011;65076;52.362;6.588;2023-03-13T15:38:57;6.13;;;1.02;;
76259;SDS011;65076;52.362;6.588;2023-03-13T15:41:25;6.60;;;1.10;;
76259;SDS011;65076;52.362;6.588;2023-03-13T15:43:55;5.38;;;1.30;;
76259;SDS011;65076;52.362;6.588;2023-03-13T15:46:23;5.80;;;1.25;;
76259;SDS011;65076;52.362;6.588;2023-03-13T15:48:55;3.08;;;0.98;;
76259;SDS011;65076;52.362;6.588;2023-03-13T15:51:22;7.40;;;1.73;;
76259;SDS011;65076;52.362;6.588;2023-03-13T15:53:51;4.60;;;2.03;;
76259;SDS011;65076;52.362;6.588;2023-03-13T15:56:20;7.72;;;2.17;;
76259;SDS011;65076;52.362;6.588;2023-03-13T15:58:49;9.90;;;1.63;;
76259;SDS011;65076;52.362;6.588;2023-03-13T16:01:19;6.85;;;1.95;;
76259;SDS011;65076;52.362;6.588;2023-03-13T16:03:48;8.35;;;2.90;;